createdAt,value
2022-09-25T00:52:38.968Z,97044.59
2022-09-25T00:55:04.905Z,97041.50
2022-09-25T00:57:30.857Z,97026.91
2022-09-25T00:59:56.779Z,97036.00
2022-09-25T01:02:22.770Z,97032.50
2022-09-25T01:04:48.806Z,97025.91
2022-09-25T01:07:15.012Z,97030.50
2022-09-25T01:09:41.019Z,97027.66
2022-09-25T01:12:06.953Z,97022.50
2022-09-25T01:14:32.907Z,97024.56
2022-09-25T01:16:58.924Z,97031.13
2022-09-25T01:19:24.932Z,97034.41
2022-09-25T01:21:50.863Z,97034.06
2022-09-25T01:24:16.830Z,97040.38
2022-09-25T01:26:42.820Z,97037.50
2022-09-25T01:29:09.505Z,97034.88
2022-09-25T01:31:36.337Z,97025.25
2022-09-25T01:34:02.294Z,97037.72
2022-09-25T01:36:28.234Z,97038.75
2022-09-25T01:38:54.192Z,97028.91
2022-09-25T01:41:20.127Z,97039.50
2022-09-25T01:43:46.056Z,97039.56
2022-09-25T01:46:12.139Z,97034.63
2022-09-25T01:48:38.189Z,97033.53
2022-09-25T01:51:04.162Z,97029.50
2022-09-25T01:53:30.840Z,97033.75
2022-09-25T01:55:56.821Z,97015.69
2022-09-25T01:58:22.747Z,97010.41
2022-09-25T02:00:48.713Z,97008.63
2022-09-25T02:03:14.674Z,97005.31
2022-09-25T02:05:40.619Z,97004.28
2022-09-25T02:08:06.574Z,97001.06
2022-09-25T02:10:33.427Z,97001.94
2022-09-25T02:12:59.370Z,97005.06
2022-09-25T02:15:25.619Z,97010.81
2022-09-25T02:17:52.286Z,97015.97
2022-09-25T02:20:18.261Z,97023.75
2022-09-25T02:22:44.241Z,97021.06
2022-09-25T02:25:10.170Z,97027.94
2022-09-25T02:27:36.145Z,97028.59
2022-09-25T02:30:02.094Z,97038.47
2022-09-25T02:32:28.053Z,97039.72
2022-09-25T02:34:54.936Z,97043.16
2022-09-25T02:37:20.882Z,97055.50
2022-09-25T02:39:46.851Z,97056.63
2022-09-25T02:42:15.100Z,97062.56
2022-09-25T02:44:41.752Z,97061.91
2022-09-25T02:47:07.698Z,97065.50
2022-09-25T02:49:34.125Z,97055.28
2022-09-25T02:52:00.113Z,97054.88
2022-09-25T02:54:26.076Z,97050.09
2022-09-25T02:56:52.942Z,97047.72
2022-09-25T02:59:19.320Z,97037.13
2022-09-25T03:01:45.316Z,97037.78
2022-09-25T03:04:11.341Z,97026.59
2022-09-25T03:06:38.015Z,97039.28
2022-09-25T03:09:03.990Z,97028.09
2022-09-25T03:11:29.927Z,97026.06
2022-09-25T03:13:55.881Z,97027.97
2022-09-25T03:16:21.879Z,97020.75
2022-09-25T03:18:47.892Z,97021.00
2022-09-25T03:21:14.813Z,97016.28
2022-09-25T03:23:41.483Z,97021.50
2022-09-25T03:26:07.442Z,97016.91
2022-09-25T03:28:33.852Z,97016.03
2022-09-25T03:31:01.598Z,97015.34
2022-09-25T03:33:27.969Z,97010.41
2022-09-25T03:35:54.238Z,97003.84
2022-09-25T03:38:21.206Z,97015.31
2022-09-25T05:47:57.902Z,97069.47
2022-09-25T05:50:23.841Z,97072.47
2022-09-25T05:52:49.822Z,97077.75
2022-09-25T05:55:15.754Z,97070.97
2022-09-25T05:57:42.615Z,97074.06
2022-09-25T06:00:08.560Z,97076.03
2022-09-25T06:02:34.592Z,97077.53
2022-09-25T06:05:00.589Z,97075.25
2022-09-25T06:07:26.557Z,97077.88
2022-09-25T06:09:53.245Z,97082.84
2022-09-25T06:12:19.272Z,97080.66
2022-09-25T06:14:45.222Z,97067.28
2022-09-25T06:17:11.198Z,97075.34
2022-09-25T06:19:37.249Z,97069.47
2022-09-25T06:22:03.182Z,97070.03
2022-09-25T06:24:29.186Z,97070.16
2022-09-25T06:26:55.144Z,97078.81
2022-09-25T06:29:22.003Z,97080.88
2022-09-25T06:31:47.958Z,97079.25
2022-09-25T06:34:13.989Z,97080.09
2022-09-25T06:36:39.926Z,97079.41
2022-09-25T06:39:06.797Z,97075.56
2022-09-25T06:41:32.825Z,97076.28
2022-09-25T06:43:58.828Z,97071.09
2022-09-25T06:46:24.826Z,97071.44
2022-09-25T06:48:50.799Z,97070.28
2022-09-25T06:51:17.544Z,97067.63
2022-09-25T06:53:43.517Z,97062.91
2022-09-25T06:56:09.469Z,97062.56
2022-09-25T06:58:35.993Z,97070.06
2022-09-25T07:01:06.286Z,97068.09
2022-09-25T07:03:35.071Z,97065.81
2022-09-25T07:06:01.888Z,97072.16
2022-09-25T07:08:27.846Z,97065.81
2022-09-25T07:10:53.822Z,97071.13
2022-09-25T07:13:19.800Z,97069.72
2022-09-25T07:15:46.559Z,97061.06
2022-09-25T07:18:12.584Z,97069.63
2022-09-25T07:20:38.561Z,97058.78
2022-09-25T07:23:05.251Z,97052.66
2022-09-25T07:25:31.212Z,97063.16
2022-09-25T07:27:57.153Z,97070.75
2022-09-25T07:30:23.134Z,97067.69
2022-09-25T07:32:49.282Z,97069.03
2022-09-25T07:35:15.253Z,97062.94
2022-09-25T07:37:41.205Z,97069.16
2022-09-25T07:40:07.208Z,97070.09
2022-09-25T07:42:34.766Z,97065.38
2022-09-25T07:45:00.708Z,97071.97
2022-09-25T07:47:26.683Z,97064.31
2022-09-25T07:49:52.653Z,97075.28
2022-09-25T07:52:18.984Z,97073.91
2022-09-25T07:54:45.892Z,97072.28
2022-09-25T07:57:12.310Z,97078.38
2022-09-25T07:59:38.314Z,97081.16
2022-09-25T08:02:04.328Z,97080.69
2022-09-25T08:04:30.313Z,97088.66
2022-09-25T08:06:56.263Z,97095.94
2022-09-25T08:09:22.271Z,97101.94
2022-09-25T08:11:48.962Z,97096.41
2022-09-25T08:14:14.941Z,97092.94
2022-09-25T08:16:40.950Z,97090.03
2022-09-25T08:19:07.482Z,97096.16
2022-09-25T08:21:35.409Z,97097.88
2022-09-25T08:24:01.634Z,97104.00
2022-09-25T08:29:12.573Z,97107.47
2022-09-25T08:31:40.320Z,97110.66
2022-09-25T08:34:35.848Z,97097.97
2022-09-25T10:46:40.728Z,97054.50
2022-09-25T10:49:06.672Z,97051.31
2022-09-25T10:51:32.619Z,97047.75
2022-09-25T10:53:58.572Z,97047.81
2022-09-25T10:56:24.558Z,97044.28
2022-09-25T10:58:50.555Z,97041.34
2022-09-25T11:01:16.641Z,97043.28
2022-09-25T11:03:43.376Z,97039.44
2022-09-25T11:06:09.378Z,97041.75
2022-09-25T11:08:35.326Z,97043.69
2022-09-25T11:11:01.265Z,97031.81
2022-09-25T11:13:27.249Z,97038.84
2022-09-25T11:15:53.239Z,97031.66
2022-09-25T11:18:19.337Z,97032.56
2022-09-25T11:20:45.302Z,97033.78
2022-09-25T11:23:11.264Z,97031.94
2022-09-25T11:25:37.974Z,97032.94
2022-09-25T11:28:03.991Z,97022.47
2022-09-25T11:30:30.685Z,97026.59
2022-09-25T11:32:56.686Z,97029.53
2022-09-25T11:35:22.685Z,97026.53
2022-09-25T11:37:49.621Z,97025.75
2022-09-25T11:40:15.633Z,97029.59
2022-09-25T11:42:41.614Z,97025.69
2022-09-25T11:45:07.612Z,97022.13
2022-09-25T11:47:34.357Z,97021.63
2022-09-25T11:50:00.390Z,97021.91
2022-09-25T11:52:26.351Z,97022.00
2022-09-25T11:54:52.303Z,97012.91
2022-09-25T11:57:19.003Z,97007.13
2022-09-25T11:59:45.000Z,97008.22
2022-09-25T12:02:11.023Z,97004.66
2022-09-25T12:04:41.356Z,97003.06
2022-09-25T12:07:07.688Z,96997.41
2022-09-25T12:09:33.659Z,96996.03
2022-09-25T12:11:59.636Z,96992.38
2022-09-25T12:14:25.586Z,96990.72
2022-09-25T12:16:52.361Z,96989.38
2022-09-25T12:19:19.270Z,96981.59
2022-09-25T12:21:46.142Z,96964.88
2022-09-25T12:24:12.194Z,96958.94
2022-09-25T12:26:38.219Z,96963.25
2022-09-25T12:29:04.184Z,96959.78
2022-09-25T12:31:31.101Z,96957.94
2022-09-25T12:33:57.072Z,96953.97
2022-09-25T12:36:23.007Z,96956.84
2022-09-25T12:38:49.030Z,96953.50
2022-09-25T12:41:14.991Z,96952.59
2022-09-25T12:43:41.705Z,96945.72
2022-09-25T12:46:07.723Z,96951.97
2022-09-25T12:48:33.711Z,96951.28
2022-09-25T12:51:04.427Z,96949.50
2022-09-25T12:53:31.434Z,96947.94
2022-09-25T12:55:57.421Z,96947.06
2022-09-25T12:58:23.368Z,96950.47
2022-09-25T13:00:49.399Z,96949.03
2022-09-25T13:03:15.395Z,96951.81
2022-09-25T13:05:42.115Z,96949.25
2022-09-25T13:08:08.278Z,96943.81
2022-09-25T13:10:34.237Z,96943.06
2022-09-25T13:13:02.588Z,96939.22
2022-09-25T13:15:28.548Z,96937.09
2022-09-25T13:17:55.078Z,96938.72
2022-09-25T13:20:21.009Z,96944.59
2022-09-25T13:22:47.078Z,96939.94
2022-09-25T13:25:13.039Z,96948.19
2022-09-25T13:27:39.629Z,96949.06
2022-09-25T13:30:06.068Z,96942.28
2022-09-25T13:32:33.820Z,96936.00
2022-09-25T13:35:00.092Z,96933.00
2022-09-25T13:37:27.603Z,96944.03
2022-09-25T13:39:53.661Z,96934.63
2022-09-25T15:47:31.382Z,96826.34
2022-09-25T15:49:57.313Z,96827.72
2022-09-25T15:52:23.286Z,96835.16
2022-09-25T15:54:50.128Z,96839.09
2022-09-25T15:57:16.126Z,96845.03
2022-09-25T15:59:42.746Z,96842.78
2022-09-25T16:02:08.793Z,96844.59
2022-09-25T16:04:38.652Z,96835.75
2022-09-25T16:07:05.017Z,96831.56
2022-09-25T16:09:31.614Z,96833.78
2022-09-25T16:11:57.553Z,96838.19
2022-09-25T16:14:23.528Z,96851.94
2022-09-25T16:16:49.504Z,96846.31
2022-09-25T16:19:15.443Z,96853.91
2022-09-25T16:21:41.408Z,96849.97
2022-09-25T16:24:07.939Z,96851.47
2022-09-25T16:26:33.930Z,96855.63
2022-09-25T16:28:59.900Z,96848.44
2022-09-25T16:31:25.965Z,96846.13
2022-09-25T16:33:52.019Z,96843.91
2022-09-25T16:36:18.904Z,96840.44
2022-09-25T16:38:44.909Z,96835.94
2022-09-25T16:41:10.868Z,96831.66
2022-09-25T16:43:36.855Z,96835.34
2022-09-25T16:46:02.853Z,96825.19
2022-09-25T16:48:28.869Z,96827.16
2022-09-25T16:50:54.836Z,96822.44
2022-09-25T16:53:21.495Z,96828.84
2022-09-25T16:55:47.667Z,96823.28
2022-09-25T16:58:13.687Z,96834.19
2022-09-25T17:00:40.990Z,96825.44
2022-09-25T17:03:07.067Z,96835.25
2022-09-25T17:05:33.051Z,96839.66
2022-09-25T17:07:59.925Z,96846.00
2022-09-25T17:10:25.909Z,96846.97
2022-09-25T17:12:53.890Z,96843.41
2022-09-25T17:15:20.122Z,96845.78
2022-09-25T17:17:46.112Z,96851.03
2022-09-25T17:20:12.077Z,96852.75
2022-09-25T17:22:38.107Z,96848.50
2022-09-25T17:25:06.594Z,96848.03
2022-09-25T17:27:32.554Z,96852.59
2022-09-25T17:29:59.231Z,96855.53
2022-09-25T17:32:25.163Z,96851.31
2022-09-25T17:34:51.154Z,96855.22
2022-09-25T17:37:17.086Z,96851.59
2022-09-25T17:39:43.862Z,96860.47
2022-09-25T17:42:09.810Z,96859.81
2022-09-25T17:44:35.782Z,96856.22
2022-09-25T17:47:02.570Z,96848.91
2022-09-25T17:49:28.548Z,96849.88
2022-09-25T17:51:54.517Z,96854.09
2022-09-25T17:54:21.001Z,96856.06
2022-09-25T17:56:47.002Z,96848.31
2022-09-25T17:59:12.987Z,96855.44
2022-09-25T18:01:39.896Z,96847.97
2022-09-25T18:04:06.911Z,96855.03
2022-09-25T18:06:32.880Z,96857.09
2022-09-25T18:08:58.862Z,96858.28
2022-09-25T18:11:25.378Z,96849.03
2022-09-25T18:13:51.652Z,96845.25
2022-09-25T18:16:17.978Z,96854.06
2022-09-25T18:18:44.616Z,96859.66
2022-09-25T18:21:11.214Z,96852.56
2022-09-25T18:23:37.473Z,96851.16
2022-09-25T18:26:05.079Z,96847.38
2022-09-25T18:28:31.325Z,96849.75
2022-09-25T18:30:57.656Z,96854.66
2022-09-25T18:33:23.936Z,96857.78
2022-09-25T18:35:50.207Z,96862.13
2022-09-25T18:38:16.555Z,96868.75
2022-09-25T18:40:43.603Z,96864.16
2022-09-25T20:39:27.136Z,96804.81
2022-09-25T20:41:53.705Z,96800.78
2022-09-25T20:44:28.296Z,96802.66
2022-09-25T20:46:54.932Z,96804.31
2022-09-25T20:49:20.910Z,96798.13
2022-09-25T20:51:46.897Z,96790.91
2022-09-25T20:54:13.285Z,96793.06
2022-09-25T20:56:40.271Z,96800.25
2022-09-25T20:59:06.948Z,96800.59
2022-09-25T21:01:33.041Z,96798.44
2022-09-25T21:03:59.130Z,96791.53
2022-09-25T21:06:25.670Z,96781.69
2022-09-25T21:08:51.642Z,96781.31
2022-09-25T21:11:17.593Z,96777.06
2022-09-25T21:13:43.578Z,96783.97
2022-09-25T21:16:11.831Z,96786.72
2022-09-25T21:18:37.763Z,96791.47
2022-09-25T21:21:04.466Z,96789.00
2022-09-25T21:23:30.427Z,96791.69
2022-09-25T21:25:56.378Z,96798.72
2022-09-25T21:28:22.348Z,96798.09
2022-09-25T21:30:48.322Z,96794.63
2022-09-25T21:33:14.322Z,96791.28
2022-09-25T21:35:41.029Z,96794.25
2022-09-25T21:38:08.028Z,96784.97
2022-09-25T21:40:34.022Z,96780.47
2022-09-25T21:43:00.829Z,96775.94
2022-09-25T21:45:26.793Z,96764.81
2022-09-25T21:47:52.780Z,96760.47
2022-09-25T21:50:18.702Z,96757.38
2022-09-25T21:52:45.759Z,96761.34
2022-09-25T21:55:11.692Z,96760.53
2022-09-25T21:57:37.884Z,96757.22
2022-09-25T22:00:03.865Z,96752.53
2022-09-25T22:02:30.841Z,96753.56
2022-09-25T22:04:56.883Z,96755.22
2022-09-25T22:07:22.880Z,96748.59
2022-09-25T22:09:49.588Z,96752.81
2022-09-25T22:12:15.540Z,96746.94
2022-09-25T22:14:41.525Z,96747.00
2022-09-25T22:17:07.533Z,96739.28
2022-09-25T22:19:33.558Z,96733.72
2022-09-25T22:22:00.273Z,96743.38
2022-09-25T22:24:26.244Z,96743.94
2022-09-25T22:26:52.189Z,96743.66
2022-09-25T22:29:18.124Z,96740.13
2022-09-25T22:31:44.151Z,96745.88
2022-09-25T22:34:11.133Z,96741.13
2022-09-25T22:36:37.073Z,96731.28
2022-09-25T22:39:03.025Z,96736.69
2022-09-25T22:41:29.748Z,96732.16
2022-09-25T22:43:56.891Z,96743.38
2022-09-25T22:46:24.435Z,96737.69
2022-09-25T22:48:50.439Z,96731.41
2022-09-25T22:51:17.356Z,96726.78
2022-09-25T22:53:43.329Z,96724.56
2022-09-25T22:56:09.273Z,96730.13
2022-09-25T22:58:36.172Z,96728.16
2022-09-25T23:01:02.167Z,96723.56
2022-09-25T23:03:28.195Z,96733.78
2022-09-25T23:05:54.131Z,96731.41
2022-09-25T23:08:20.129Z,96737.97
2022-09-25T23:11:06.205Z,96743.03
2022-09-25T23:13:33.550Z,96739.88
2022-09-25T23:15:59.528Z,96733.03
2022-09-25T23:18:25.751Z,96728.59
2022-09-25T23:20:53.476Z,96727.97
2022-09-25T23:23:19.565Z,96725.34
2022-09-25T23:25:45.939Z,96713.63
2022-09-25T23:28:13.528Z,96716.03
2022-09-25T23:30:40.030Z,96723.25
2022-09-25T23:33:06.222Z,96714.22
